Terminal Aerodrome Forecast
Issued by NWS

Home | Current Version | Previous Version | Graphics & Text | Print | Product List | Glossary On
Versions: 1 2 3 4 5 6 7 8 9 10 11 12 13 14 15 16 17 18 19 20
000
FTUS43 KGRB 231128
TAFRHI
TAF
KRHI 231128Z 2312/2412 21008KT P6SM SCT250 WS020/24035KT
     FM231400 21010G15KT P6SM SCT250
     FM231600 21011G18KT P6SM SCT040
     FM240000 18006KT P6SM SCT080
     FM240600 17008KT P6SM SCT050 BKN080 PROB30 2408/2412 3SM SHRA
      BKN025=

USA.gov is the U.S. government's official web portal to all federal, state and local government web resources and services.